createdAt,value
2023-03-16T00:06:52.277Z,3.26
2023-03-16T00:16:53.692Z,3.38
2023-03-16T00:26:55.211Z,3.44
2023-03-16T00:36:56.745Z,3.49
2023-03-16T00:46:58.229Z,3.65
2023-03-16T00:57:00.360Z,3.61
2023-03-16T01:07:03.754Z,3.68
2023-03-16T01:17:08.590Z,3.73
2023-03-16T01:27:10.133Z,3.68
2023-03-16T01:37:11.606Z,3.70
2023-03-16T01:47:14.521Z,3.78
2023-03-16T01:57:22.269Z,3.78
2023-03-16T02:07:25.508Z,3.85
2023-03-16T02:17:29.473Z,3.90
2023-03-16T02:27:30.817Z,3.91
2023-03-16T02:37:33.807Z,3.92
2023-03-16T02:47:43.133Z,3.90
2023-03-16T02:57:44.538Z,3.91
2023-03-16T03:07:45.924Z,3.94
2023-03-16T03:17:47.473Z,4.01
2023-03-16T03:27:51.033Z,4.04
2023-03-16T03:37:52.608Z,4.13
2023-03-16T03:47:56.012Z,4.09
2023-03-16T03:57:57.423Z,4.14
2023-03-16T04:07:58.920Z,4.15
2023-03-16T04:18:00.463Z,4.30
2023-03-16T04:28:02.004Z,4.23
2023-03-16T04:38:03.912Z,4.29
2023-03-16T04:48:05.723Z,4.37
2023-03-16T04:58:07.148Z,4.41
2023-03-16T05:08:08.834Z,4.52
2023-03-16T05:18:10.386Z,4.50
2023-03-16T05:28:12.608Z,4.52
2023-03-16T05:38:15.682Z,4.49
2023-03-16T05:48:17.073Z,4.50
2023-03-16T05:58:18.545Z,4.46
2023-03-16T06:08:20.142Z,4.49
2023-03-16T06:18:21.513Z,4.53
2023-03-16T06:28:23.345Z,4.65
2023-03-16T06:38:24.887Z,4.74
2023-03-16T06:48:26.283Z,4.84
2023-03-16T06:58:27.738Z,4.96
2023-03-16T07:08:29.275Z,5.17
2023-03-16T07:18:31.663Z,5.47
2023-03-16T07:28:33.078Z,5.55
2023-03-16T07:38:34.787Z,5.72
2023-03-16T07:48:37.433Z,5.93
2023-03-16T07:58:38.794Z,6.09
2023-03-16T08:08:40.322Z,6.16
2023-03-16T08:18:42.368Z,6.21
2023-03-16T08:28:47.624Z,6.18
2023-03-16T08:39:05.544Z,6.25
2023-03-16T08:49:08.794Z,6.25
2023-03-16T08:59:19.948Z,6.34
2023-03-16T09:09:31.022Z,6.39
2023-03-16T09:19:49.979Z,6.57
2023-03-16T09:29:55.995Z,6.90
2023-03-16T09:40:06.820Z,7.14
2023-03-16T09:50:47.665Z,7.38
2023-03-16T10:00:52.819Z,7.69
2023-03-16T10:11:23.776Z,7.79
2023-03-16T10:21:25.215Z,8.05
2023-03-16T10:31:28.367Z,8.18
2023-03-16T10:41:38.759Z,8.33
2023-03-16T10:51:40.268Z,8.51
2023-03-16T11:01:45.158Z,8.73
2023-03-16T11:11:49.312Z,8.80
2023-03-16T11:21:58.973Z,9.30
2023-03-16T11:32:05.832Z,9.54
2023-03-16T11:42:22.523Z,9.86
2023-03-16T11:52:42.640Z,10.07
2023-03-16T12:02:50.156Z,10.28
2023-03-16T12:13:00.443Z,10.37
2023-03-16T12:23:11.745Z,10.47
2023-03-16T12:33:34.517Z,10.64
2023-03-16T12:43:50.984Z,10.68
2023-03-16T12:53:53.314Z,10.88
2023-03-16T13:04:09.122Z,10.98
2023-03-16T13:14:17.003Z,11.14
2023-03-16T13:24:18.427Z,11.33
2023-03-16T13:34:27.713Z,11.33
2023-03-16T13:44:30.211Z,11.43
2023-03-16T13:54:31.888Z,11.48
2023-03-16T14:04:33.983Z,11.61
2023-03-16T14:14:41.158Z,11.68
2023-03-16T14:24:44.234Z,11.83
2023-03-16T14:34:50.126Z,11.95
2023-03-16T14:44:51.700Z,11.99
2023-03-16T14:54:55.217Z,11.96
2023-03-16T15:04:59.223Z,12.09
2023-03-16T15:15:16.509Z,12.07
2023-03-16T15:25:41.510Z,12.08
2023-03-16T15:35:43.855Z,12.09
2023-03-16T15:45:47.122Z,12.02
2023-03-16T15:55:54.120Z,11.97
2023-03-16T16:05:55.580Z,11.88
2023-03-16T16:15:57.704Z,11.77
2023-03-16T16:26:02.788Z,11.82
2023-03-16T16:36:11.064Z,11.71
2023-03-16T16:46:18.534Z,11.57
2023-03-16T16:56:27.704Z,11.38
2023-03-16T17:06:30.420Z,11.18
2023-03-16T17:16:35.388Z,11.07
2023-03-16T17:26:41.908Z,10.93
2023-03-16T17:36:43.894Z,10.80
2023-03-16T17:46:46.290Z,10.58
2023-03-16T17:56:50.593Z,10.48
2023-03-16T18:06:52.276Z,10.43
2023-03-16T18:16:54.621Z,10.30
2023-03-16T18:26:56.475Z,10.27
2023-03-16T18:37:00.674Z,10.13
2023-03-16T18:47:03.543Z,10.08
2023-03-16T18:57:16.339Z,10.02
2023-03-16T19:07:28.702Z,9.96
2023-03-16T19:17:30.294Z,9.89
2023-03-16T19:27:38.440Z,9.79
2023-03-16T19:37:40.303Z,9.73
2023-03-16T19:47:41.796Z,9.71
2023-03-16T19:57:44.513Z,9.55
2023-03-16T20:07:46.799Z,9.53
2023-03-16T20:17:49.965Z,9.46
2023-03-16T20:27:56.275Z,9.37
2023-03-16T20:37:57.853Z,9.35
2023-03-16T20:47:59.445Z,9.36
2023-03-16T20:58:01.399Z,9.34
2023-03-16T21:08:02.779Z,9.26
2023-03-16T21:18:07.403Z,9.22
2023-03-16T21:28:12.566Z,9.18
2023-03-16T21:38:16.925Z,9.16
2023-03-16T21:48:29.971Z,9.17
2023-03-16T21:58:31.410Z,9.11
2023-03-16T22:08:34.291Z,9.05
2023-03-16T22:18:37.013Z,9.06
2023-03-16T22:28:38.606Z,9.05
2023-03-16T22:38:41.943Z,9.14
2023-03-16T22:48:43.432Z,9.03
2023-03-16T22:58:50.446Z,9.03
2023-03-16T23:08:54.255Z,9.10
2023-03-16T23:18:56.286Z,9.21
2023-03-16T23:28:57.958Z,9.17
2023-03-16T23:38:59.455Z,9.23
2023-03-16T23:49:05.133Z,9.21
2023-03-16T23:59:06.729Z,9.25
